createdAt,value
2022-08-25T00:00:45.941Z,26.53
2022-08-25T00:01:45.894Z,26.43
2022-08-25T00:02:55.574Z,26.69
2022-08-25T00:03:45.911Z,26.53
2022-08-25T00:04:45.848Z,26.48
2022-08-25T00:05:45.886Z,26.75
2022-08-25T00:06:45.825Z,26.59
2022-08-25T00:07:45.835Z,26.53
2022-08-25T00:08:45.824Z,26.75
2022-08-25T00:09:45.806Z,26.32
2022-08-25T00:10:45.781Z,26.69
2022-08-25T00:11:45.773Z,26.75
2022-08-25T00:12:45.753Z,26.69
2022-08-25T00:13:45.740Z,26.75
2022-08-25T00:14:45.766Z,26.48
2022-08-25T00:15:45.746Z,26.10
2022-08-25T00:16:45.700Z,26.64
2022-08-25T00:17:45.671Z,26.53
2022-08-25T00:18:45.654Z,26.48
2022-08-25T00:19:45.640Z,26.75
2022-08-25T00:20:48.827Z,26.80
2022-08-25T00:21:45.639Z,26.69
2022-08-25T00:22:45.642Z,26.69
2022-08-25T00:23:45.620Z,26.21
2022-08-25T00:24:45.617Z,26.69
2022-08-25T00:25:45.590Z,26.75
2022-08-25T00:26:45.580Z,26.75
2022-08-25T00:27:45.850Z,26.53
2022-08-25T00:28:45.551Z,26.26
2022-08-25T00:29:45.500Z,26.48
2022-08-25T00:30:45.561Z,26.05
2022-08-25T00:31:45.561Z,26.64
2022-08-25T00:32:50.503Z,26.53
2022-08-25T00:33:45.453Z,26.75
2022-08-25T00:34:45.466Z,26.75
2022-08-25T00:35:45.439Z,26.48
2022-08-25T00:36:45.454Z,26.48
2022-08-25T00:37:45.412Z,26.48
2022-08-25T00:38:45.430Z,26.64
2022-08-25T00:39:45.433Z,26.21
2022-08-25T00:40:45.388Z,26.69
2022-08-25T00:41:45.359Z,26.16
2022-08-25T00:42:45.363Z,26.64
2022-08-25T00:43:45.350Z,26.53
2022-08-25T00:44:45.458Z,26.53
2022-08-25T00:45:45.295Z,26.64
2022-08-25T00:46:45.278Z,26.75
2022-08-25T00:47:45.268Z,26.59
2022-08-25T00:48:45.308Z,26.10
2022-08-25T00:49:45.233Z,26.69
2022-08-25T00:50:45.247Z,26.48
2022-08-25T00:51:45.250Z,26.69
2022-08-25T00:52:45.260Z,26.26
2022-08-25T00:53:45.195Z,26.64
2022-08-25T00:54:45.193Z,26.53
2022-08-25T00:55:45.182Z,26.26
2022-08-25T00:56:45.168Z,26.69
2022-08-25T00:57:45.159Z,26.75
2022-08-25T00:58:45.133Z,26.69
2022-08-25T00:59:45.151Z,26.48
2022-08-25T01:00:45.099Z,26.16
2022-08-25T01:01:45.125Z,26.69
2022-08-25T01:02:45.228Z,26.43
2022-08-25T01:03:45.059Z,26.69
2022-08-25T01:04:48.841Z,26.53
2022-08-25T01:05:45.058Z,26.48
2022-08-25T01:06:45.027Z,26.26
2022-08-25T01:07:45.039Z,26.75
2022-08-25T01:08:44.996Z,26.37
2022-08-25T01:09:44.993Z,26.59
2022-08-25T01:10:44.984Z,26.48
2022-08-25T01:11:44.996Z,26.26
2022-08-25T01:12:44.969Z,26.05
2022-08-25T01:13:44.939Z,26.59
2022-08-25T01:14:44.914Z,26.75
2022-08-25T01:15:44.969Z,26.00
2022-08-25T01:16:44.890Z,26.75
2022-08-25T01:17:44.874Z,26.59
2022-08-25T01:18:44.859Z,26.48
2022-08-25T01:19:44.848Z,26.59
2022-08-25T01:20:44.849Z,26.10
2022-08-25T01:21:44.879Z,26.48
2022-08-25T01:22:44.824Z,26.69
2022-08-25T01:23:44.794Z,26.21
2022-08-25T01:24:44.802Z,26.48
2022-08-25T01:25:44.760Z,26.48
2022-08-25T01:26:44.759Z,26.53
2022-08-25T01:27:44.818Z,26.64
2022-08-25T01:28:44.731Z,26.75
2022-08-25T01:29:44.709Z,26.53
2022-08-25T01:30:44.737Z,26.10
2022-08-25T01:31:44.686Z,26.05
2022-08-25T01:32:44.688Z,26.64
2022-08-25T01:33:44.688Z,26.53
2022-08-25T01:34:44.650Z,26.59
2022-08-25T01:35:44.624Z,26.80
2022-08-25T01:36:44.627Z,26.53
2022-08-25T01:37:44.640Z,26.64
2022-08-25T01:38:44.594Z,26.64
2022-08-25T01:39:44.683Z,26.53
2022-08-25T01:40:44.625Z,26.53
2022-08-25T01:41:44.574Z,26.75
2022-08-25T01:42:44.543Z,26.59
2022-08-25T01:43:44.601Z,26.59
2022-08-25T01:44:44.531Z,26.43
2022-08-25T01:45:44.532Z,26.69
2022-08-25T01:46:44.496Z,26.69
2022-08-25T01:47:44.473Z,26.80
2022-08-25T01:48:44.467Z,26.53
2022-08-25T01:49:44.451Z,26.64
2022-08-25T01:50:44.475Z,26.16
2022-08-25T01:51:44.415Z,26.21
2022-08-25T01:52:44.418Z,26.10
2022-08-25T01:53:44.392Z,26.53
2022-08-25T01:54:44.410Z,26.43
2022-08-25T01:55:44.365Z,26.80
2022-08-25T01:56:44.392Z,26.53
2022-08-25T01:57:44.346Z,26.80
2022-08-25T01:58:44.393Z,26.10
2022-08-25T01:59:44.318Z,26.80
2022-08-25T02:00:44.325Z,26.69
2022-08-25T02:01:44.321Z,26.53
2022-08-25T02:02:44.341Z,26.43
2022-08-25T02:03:44.286Z,26.43
2022-08-25T02:04:44.595Z,26.48
2022-08-25T02:05:44.234Z,26.53
2022-08-25T02:06:44.230Z,26.05
2022-08-25T02:07:44.244Z,26.69
2022-08-25T02:08:44.194Z,26.64
2022-08-25T02:09:44.185Z,26.69
2022-08-25T02:10:44.170Z,26.05
2022-08-25T02:11:44.159Z,26.75
2022-08-25T02:12:44.156Z,26.16
2022-08-25T02:13:44.104Z,26.53
2022-08-25T02:14:44.134Z,26.75
2022-08-25T02:15:44.110Z,26.43
2022-08-25T02:16:44.194Z,26.80
2022-08-25T02:17:44.093Z,26.80
2022-08-25T02:18:44.066Z,26.69
2022-08-25T02:19:44.065Z,26.64
2022-08-25T02:20:44.046Z,26.53
2022-08-25T02:21:44.034Z,26.69
2022-08-25T02:22:51.176Z,26.53
2022-08-25T02:23:44.000Z,26.53
2022-08-25T02:24:44.005Z,26.26
2022-08-25T02:25:43.977Z,26.64
2022-08-25T02:26:43.983Z,26.69
2022-08-25T02:27:43.930Z,26.64
2022-08-25T02:28:43.962Z,26.59
2022-08-25T02:29:43.934Z,26.64
2022-08-25T02:30:43.946Z,26.00
2022-08-25T02:31:43.891Z,26.26
2022-08-25T02:32:43.871Z,26.53
2022-08-25T02:33:43.874Z,26.10
2022-08-25T02:34:43.878Z,26.75
2022-08-25T02:35:43.831Z,26.05
2022-08-25T02:36:43.836Z,26.69
2022-08-25T02:37:43.820Z,26.69
2022-08-25T02:38:43.809Z,26.43
2022-08-25T02:39:43.794Z,26.64
2022-08-25T02:40:43.770Z,26.53
2022-08-25T02:41:43.737Z,26.75
2022-08-25T02:42:43.738Z,26.48
2022-08-25T02:43:43.744Z,26.59
2022-08-25T02:44:43.698Z,26.48
2022-08-25T02:45:43.768Z,26.53
2022-08-25T02:46:43.718Z,26.21
2022-08-25T02:47:43.672Z,26.05
2022-08-25T02:48:43.643Z,26.69
2022-08-25T02:49:43.656Z,26.21
2022-08-25T02:50:43.650Z,26.00
2022-08-25T02:51:43.616Z,26.69
2022-08-25T02:52:43.614Z,26.64
2022-08-25T02:53:43.593Z,26.64
2022-08-25T02:54:43.601Z,26.69
2022-08-25T02:55:43.560Z,26.69
2022-08-25T02:56:44.199Z,26.10
2022-08-25T02:57:43.542Z,26.59
2022-08-25T02:58:43.593Z,26.59
2022-08-25T02:59:43.507Z,26.53
2022-08-25T03:00:43.539Z,26.80
2022-08-25T03:01:43.487Z,26.69
2022-08-25T03:02:43.474Z,26.75
2022-08-25T03:03:43.622Z,26.48
2022-08-25T03:04:43.538Z,26.48
2022-08-25T03:05:43.416Z,26.64
2022-08-25T03:06:43.447Z,26.75
2022-08-25T03:07:43.405Z,26.16
2022-08-25T03:08:43.395Z,26.64
2022-08-25T03:09:43.377Z,26.69
2022-08-25T03:10:43.404Z,26.59
2022-08-25T03:11:43.335Z,26.48
2022-08-25T03:12:43.361Z,26.64
2022-08-25T03:13:43.329Z,26.86
2022-08-25T03:14:43.328Z,26.53
2022-08-25T03:15:43.327Z,26.59
2022-08-25T03:16:43.336Z,26.43
2022-08-25T03:17:43.802Z,26.10
2022-08-25T03:18:43.264Z,26.69
2022-08-25T03:19:43.228Z,26.64
2022-08-25T03:20:43.256Z,26.64
2022-08-25T03:21:43.231Z,26.59
2022-08-25T03:22:43.552Z,26.21
2022-08-25T03:23:43.227Z,26.75
2022-08-25T03:24:43.223Z,26.53
2022-08-25T03:25:43.144Z,26.64
2022-08-25T03:26:43.142Z,26.43
2022-08-25T03:27:43.140Z,25.94
2022-08-25T03:28:43.134Z,26.64
2022-08-25T03:29:43.116Z,26.69
2022-08-25T03:30:43.154Z,26.48
2022-08-25T03:31:43.123Z,26.64
2022-08-25T03:32:43.107Z,26.64
2022-08-25T03:33:43.115Z,26.75
2022-08-25T03:34:43.078Z,26.53
2022-08-25T03:35:43.062Z,26.53
2022-08-25T03:36:43.029Z,26.48
2022-08-25T03:37:43.022Z,26.00
2022-08-25T03:38:43.015Z,26.48
2022-08-25T03:39:42.994Z,26.05
2022-08-25T03:40:43.010Z,26.53
2022-08-25T03:41:42.955Z,26.48
2022-08-25T03:42:45.002Z,26.53
2022-08-25T03:43:42.949Z,26.69
2022-08-25T03:44:42.935Z,26.48
2022-08-25T03:45:42.974Z,26.43
2022-08-25T03:46:42.932Z,26.75
2022-08-25T03:47:42.870Z,26.64
2022-08-25T03:48:42.891Z,26.53
2022-08-25T03:49:42.864Z,26.59
2022-08-25T03:50:42.863Z,26.53
2022-08-25T03:51:42.841Z,26.64
2022-08-25T03:52:42.921Z,26.64
2022-08-25T03:53:42.790Z,26.00
2022-08-25T03:54:42.787Z,26.43
2022-08-25T03:55:42.785Z,26.48
2022-08-25T03:56:42.751Z,26.64
2022-08-25T03:57:42.771Z,26.53
2022-08-25T03:58:42.742Z,26.53
2022-08-25T03:59:42.735Z,26.69
2022-08-25T04:00:42.702Z,26.48
2022-08-25T04:01:42.691Z,26.80
2022-08-25T04:02:42.719Z,26.69
2022-08-25T04:03:42.643Z,26.64
2022-08-25T04:04:42.641Z,26.64
2022-08-25T04:05:42.638Z,26.59
2022-08-25T04:06:42.603Z,26.59
2022-08-25T04:07:42.624Z,26.26
2022-08-25T04:08:42.573Z,26.69
2022-08-25T04:09:42.593Z,26.10
2022-08-25T04:10:42.563Z,26.10
2022-08-25T04:11:42.792Z,26.53
2022-08-25T04:12:42.520Z,26.53
2022-08-25T04:13:42.534Z,26.53
2022-08-25T04:14:42.517Z,26.48
2022-08-25T04:15:42.517Z,26.53
2022-08-25T04:16:42.534Z,26.48
2022-08-25T04:17:42.457Z,26.43
2022-08-25T04:18:42.475Z,26.43
2022-08-25T04:19:42.464Z,26.53
2022-08-25T04:20:46.525Z,26.69
2022-08-25T04:21:42.408Z,26.69
2022-08-25T04:22:45.057Z,26.69
2022-08-25T04:23:42.379Z,26.64
2022-08-25T04:24:42.360Z,26.53
2022-08-25T04:25:42.370Z,26.48
2022-08-25T04:26:42.339Z,26.64
2022-08-25T04:27:42.348Z,26.16
2022-08-25T04:28:42.343Z,26.48
2022-08-25T04:29:42.297Z,26.43
2022-08-25T04:30:42.306Z,26.69
2022-08-25T04:31:42.350Z,26.53
2022-08-25T04:32:42.290Z,26.59
2022-08-25T04:33:42.245Z,25.57
2022-08-25T04:34:42.227Z,26.43
2022-08-25T04:35:42.240Z,26.69
2022-08-25T04:36:42.215Z,26.53
2022-08-25T04:37:42.199Z,26.05
2022-08-25T04:38:42.209Z,26.75
2022-08-25T04:39:42.206Z,26.64
2022-08-25T04:40:42.176Z,26.10
2022-08-25T04:41:42.186Z,26.59
2022-08-25T04:42:42.137Z,26.69
2022-08-25T04:43:42.150Z,26.16
2022-08-25T04:44:42.127Z,26.80
2022-08-25T04:45:42.137Z,26.75
2022-08-25T04:46:42.107Z,26.53
2022-08-25T04:47:42.100Z,26.75
2022-08-25T04:48:42.075Z,26.80
2022-08-25T04:49:42.078Z,26.00
2022-08-25T04:50:42.018Z,26.64
2022-08-25T04:51:42.007Z,26.16
2022-08-25T04:52:42.017Z,26.53
2022-08-25T04:53:41.996Z,26.53
2022-08-25T04:54:42.021Z,26.59
2022-08-25T04:55:41.952Z,26.75
2022-08-25T04:56:41.930Z,26.75
2022-08-25T04:57:41.938Z,26.59
2022-08-25T04:58:41.916Z,26.64
2022-08-25T04:59:41.901Z,26.53
2022-08-25T05:00:41.954Z,26.53
2022-08-25T05:01:41.917Z,26.69
2022-08-25T05:02:41.866Z,26.69
2022-08-25T05:03:41.862Z,26.10
2022-08-25T05:04:41.893Z,26.43
2022-08-25T05:05:41.816Z,26.05
2022-08-25T05:06:41.847Z,26.69
2022-08-25T05:07:41.807Z,26.26
2022-08-25T05:08:41.768Z,26.10
2022-08-25T05:09:41.792Z,26.69
2022-08-25T05:10:43.394Z,26.64
2022-08-25T05:11:41.758Z,26.69
2022-08-25T05:12:41.725Z,26.80
2022-08-25T05:13:41.717Z,26.64
2022-08-25T05:14:41.743Z,26.10
2022-08-25T05:15:41.704Z,26.53
2022-08-25T05:16:41.726Z,26.64
2022-08-25T05:17:41.683Z,26.10
2022-08-25T05:18:41.654Z,26.53
2022-08-25T05:19:41.630Z,26.21
2022-08-25T05:20:41.668Z,26.53
2022-08-25T05:21:41.621Z,26.75
2022-08-25T05:22:41.690Z,26.48
2022-08-25T05:23:41.602Z,26.69
2022-08-25T05:24:41.566Z,26.64
2022-08-25T05:25:41.596Z,26.53
2022-08-25T05:26:41.553Z,26.69
2022-08-25T05:27:41.552Z,26.53
2022-08-25T05:28:41.515Z,26.21
2022-08-25T05:29:41.512Z,26.64
2022-08-25T05:30:41.485Z,26.59
2022-08-25T05:31:44.923Z,26.48
2022-08-25T05:32:41.476Z,26.69
2022-08-25T05:33:41.459Z,26.21
2022-08-25T05:34:41.459Z,26.75
2022-08-25T05:35:41.429Z,26.59
2022-08-25T05:36:41.434Z,26.37
2022-08-25T05:37:41.404Z,26.48
2022-08-25T05:38:41.367Z,26.69
2022-08-25T05:39:41.371Z,26.37
2022-08-25T05:40:41.353Z,26.64
2022-08-25T05:41:41.349Z,26.37
2022-08-25T05:42:41.343Z,26.21
2022-08-25T05:43:41.323Z,26.59
2022-08-25T05:44:41.302Z,26.75
2022-08-25T05:45:41.350Z,26.32
2022-08-25T05:46:41.284Z,26.69
2022-08-25T05:47:41.276Z,26.59
2022-08-25T05:48:41.250Z,26.16
2022-08-25T05:49:41.232Z,26.53
2022-08-25T05:50:41.227Z,26.69
2022-08-25T05:51:41.229Z,26.69
2022-08-25T05:52:41.208Z,26.75
2022-08-25T05:53:41.192Z,26.53
2022-08-25T05:54:41.150Z,26.48
2022-08-25T05:55:41.173Z,26.53
2022-08-25T05:56:41.129Z,26.75
2022-08-25T05:57:41.116Z,26.69
2022-08-25T05:58:41.116Z,26.37
2022-08-25T05:59:41.110Z,26.69
2022-08-25T06:00:41.146Z,26.69
2022-08-25T06:01:41.086Z,26.75
2022-08-25T06:02:41.086Z,26.64
2022-08-25T06:03:41.089Z,26.80
2022-08-25T06:04:41.447Z,26.64
2022-08-25T06:05:41.018Z,26.69
2022-08-25T06:06:41.026Z,26.80
2022-08-25T06:07:40.985Z,26.53
2022-08-25T06:08:40.968Z,26.53
2022-08-25T06:09:40.978Z,26.64
2022-08-25T06:10:40.967Z,26.69
2022-08-25T06:11:40.950Z,26.75
2022-08-25T06:12:40.913Z,26.69
2022-08-25T06:13:40.929Z,26.53
2022-08-25T06:14:40.915Z,26.75
2022-08-25T06:15:40.910Z,26.59
2022-08-25T06:16:40.941Z,26.64
2022-08-25T06:17:40.871Z,26.59
2022-08-25T06:18:40.891Z,26.59
2022-08-25T06:19:41.350Z,26.80
2022-08-25T06:20:40.815Z,26.75
2022-08-25T06:21:40.834Z,26.75
2022-08-25T06:22:40.810Z,26.59
2022-08-25T06:23:40.794Z,26.69
2022-08-25T06:24:40.770Z,26.86
2022-08-25T06:25:40.751Z,26.75
2022-08-25T06:26:40.741Z,26.80
2022-08-25T06:27:40.736Z,26.59
2022-08-25T06:28:40.820Z,26.53
2022-08-25T06:29:40.709Z,26.80
2022-08-25T06:30:40.688Z,26.64
2022-08-25T06:31:40.736Z,26.26
2022-08-25T06:32:40.675Z,26.69
2022-08-25T06:33:40.675Z,26.86
2022-08-25T06:34:40.639Z,26.64
2022-08-25T06:35:40.648Z,26.80
2022-08-25T06:36:40.614Z,26.75
2022-08-25T06:37:40.602Z,26.80
2022-08-25T06:38:40.584Z,25.78
2022-08-25T06:39:40.579Z,26.64
2022-08-25T06:40:40.556Z,26.80
2022-08-25T06:41:40.532Z,26.59
2022-08-25T06:42:40.540Z,26.53
2022-08-25T06:43:44.967Z,26.86
2022-08-25T06:44:40.531Z,26.59
2022-08-25T06:45:40.498Z,26.80
2022-08-25T06:46:40.490Z,26.86
2022-08-25T06:47:40.469Z,26.21
2022-08-25T06:48:40.436Z,26.80
2022-08-25T06:49:40.425Z,26.80
2022-08-25T06:50:40.448Z,26.69
2022-08-25T06:51:40.429Z,26.64
2022-08-25T06:52:40.397Z,26.48
2022-08-25T06:53:40.390Z,26.53
2022-08-25T06:54:40.368Z,26.69
2022-08-25T06:55:40.345Z,26.69
2022-08-25T06:56:40.362Z,26.21
2022-08-25T06:57:40.347Z,26.37
2022-08-25T06:58:40.385Z,26.75
2022-08-25T06:59:41.595Z,26.75
2022-08-25T07:00:40.297Z,26.32
2022-08-25T07:01:40.421Z,26.37
2022-08-25T07:02:40.340Z,26.59
2022-08-25T07:03:40.258Z,26.69
2022-08-25T07:04:40.231Z,26.21
2022-08-25T07:05:43.945Z,26.64
2022-08-25T07:06:40.224Z,26.80
2022-08-25T07:07:43.686Z,26.75
2022-08-25T07:08:40.172Z,26.32
2022-08-25T07:09:40.182Z,26.64
2022-08-25T07:10:40.158Z,26.80
2022-08-25T07:11:40.174Z,26.59
2022-08-25T07:12:40.124Z,26.64
2022-08-25T07:13:40.123Z,26.80
2022-08-25T07:14:40.086Z,26.26
2022-08-25T07:15:40.114Z,26.80
2022-08-25T07:16:40.144Z,26.21
2022-08-25T07:17:40.103Z,26.21
2022-08-25T07:18:40.049Z,26.75
2022-08-25T07:19:41.012Z,26.64
2022-08-25T07:20:40.027Z,26.26
2022-08-25T07:21:40.016Z,26.69
2022-08-25T07:22:39.998Z,26.69
2022-08-25T07:23:39.991Z,26.59
2022-08-25T07:24:39.970Z,26.75
2022-08-25T07:25:39.961Z,26.48
2022-08-25T07:26:39.967Z,26.21
2022-08-25T07:27:42.270Z,26.75
2022-08-25T07:28:39.911Z,26.69
2022-08-25T07:29:42.616Z,26.80
2022-08-25T07:30:39.871Z,26.64
2022-08-25T07:31:39.997Z,26.86
2022-08-25T07:32:41.966Z,26.59
2022-08-25T07:33:39.841Z,26.75
2022-08-25T07:34:39.817Z,26.86
2022-08-25T07:35:39.815Z,26.80
2022-08-25T07:36:39.815Z,26.32
2022-08-25T07:37:48.884Z,26.75
2022-08-25T07:38:39.787Z,26.59
2022-08-25T07:39:39.783Z,26.69
2022-08-25T07:40:42.671Z,26.75
2022-08-25T07:41:39.737Z,26.69
2022-08-25T07:42:39.757Z,26.64
2022-08-25T07:43:39.729Z,26.80
2022-08-25T07:44:39.713Z,26.80
2022-08-25T07:45:46.894Z,26.59
2022-08-25T07:46:39.748Z,26.80
2022-08-25T07:47:39.703Z,26.48
2022-08-25T07:48:39.679Z,26.26
2022-08-25T07:49:39.909Z,26.59
2022-08-25T07:50:39.602Z,26.75
2022-08-25T07:51:39.647Z,26.64
2022-08-25T07:52:39.652Z,26.48
2022-08-25T07:53:39.616Z,26.80
2022-08-25T07:54:39.618Z,26.48
2022-08-25T07:55:39.575Z,26.48
2022-08-25T07:56:39.572Z,26.69
2022-08-25T07:57:39.539Z,26.80
2022-08-25T07:58:39.556Z,26.64
2022-08-25T07:59:40.348Z,26.69
2022-08-25T08:00:39.482Z,26.80
2022-08-25T08:01:39.509Z,26.80
2022-08-25T08:02:39.466Z,26.91
2022-08-25T08:03:50.524Z,26.53
2022-08-25T08:04:39.428Z,26.80
2022-08-25T08:05:39.462Z,26.64
2022-08-25T08:06:39.402Z,26.75
2022-08-25T08:07:42.168Z,26.64
2022-08-25T08:08:39.417Z,26.64
2022-08-25T08:09:39.380Z,26.80
2022-08-25T08:11:02.912Z,26.64
2022-08-25T08:11:42.546Z,26.80
2022-08-25T08:12:39.327Z,26.64
2022-08-25T08:13:41.457Z,26.86
2022-08-25T08:14:44.838Z,26.69
2022-08-25T08:15:39.272Z,26.32
2022-08-25T08:16:39.342Z,26.75
2022-08-25T08:17:39.257Z,26.75
2022-08-25T08:18:39.227Z,26.69
2022-08-25T08:19:43.103Z,26.80
2022-08-25T08:20:42.672Z,26.64
2022-08-25T08:21:39.235Z,26.59
2022-08-25T08:22:39.177Z,26.48
2022-08-25T08:23:39.194Z,26.32
2022-08-25T08:24:44.630Z,26.75
2022-08-25T08:25:39.178Z,26.69
2022-08-25T08:26:57.837Z,26.69
2022-08-25T08:27:39.147Z,26.64
2022-08-25T08:28:39.117Z,26.86
2022-08-25T08:29:39.097Z,26.69
2022-08-25T08:30:39.130Z,26.69
2022-08-25T08:31:39.147Z,26.69
2022-08-25T08:33:08.243Z,26.53
2022-08-25T08:33:40.717Z,26.80
2022-08-25T08:34:39.069Z,26.80
2022-08-25T08:35:39.045Z,26.80
2022-08-25T08:36:39.008Z,26.37
2022-08-25T08:37:38.997Z,26.80
2022-08-25T08:38:39.020Z,26.86
2022-08-25T08:39:39.020Z,26.64
2022-08-25T08:40:38.942Z,26.75
2022-08-25T08:42:07.308Z,26.75
2022-08-25T08:42:38.945Z,26.69
2022-08-25T08:43:39.458Z,26.80
2022-08-25T08:44:38.902Z,26.86
2022-08-25T08:45:40.536Z,26.69
2022-08-25T08:46:38.975Z,26.75
2022-08-25T08:47:38.855Z,26.75
2022-08-25T08:48:38.831Z,26.91
2022-08-25T08:49:38.816Z,26.96
2022-08-25T08:50:38.804Z,26.75
2022-08-25T08:51:38.815Z,26.43
2022-08-25T08:52:38.793Z,26.86
2022-08-25T08:53:38.780Z,26.86
2022-08-25T08:54:38.769Z,26.80
2022-08-25T08:55:38.763Z,26.91
2022-08-25T08:56:38.747Z,26.96
2022-08-25T08:57:38.791Z,26.86
2022-08-25T08:58:38.717Z,26.96
2022-08-25T08:59:38.709Z,26.86
2022-08-25T09:00:38.688Z,26.96
2022-08-25T09:01:38.726Z,27.02
2022-08-25T09:02:51.476Z,26.86
2022-08-25T09:03:39.705Z,26.59
2022-08-25T09:04:38.631Z,26.80
2022-08-25T09:05:43.819Z,26.80
2022-08-25T09:06:38.602Z,26.91
2022-08-25T09:07:38.609Z,26.91
2022-08-25T09:08:38.569Z,27.07
2022-08-25T09:09:38.583Z,27.02
2022-08-25T09:10:38.546Z,26.91
2022-08-25T09:11:38.559Z,26.96
2022-08-25T09:12:38.573Z,26.96
2022-08-25T09:13:38.518Z,26.96
2022-08-25T09:14:38.523Z,26.91
2022-08-25T09:15:41.250Z,27.02
2022-08-25T09:16:38.510Z,26.96
2022-08-25T09:17:38.457Z,27.07
2022-08-25T09:18:41.249Z,26.96
2022-08-25T09:19:41.792Z,26.96
2022-08-25T09:20:38.413Z,27.02
2022-08-25T09:21:38.410Z,26.96
2022-08-25T09:22:38.445Z,27.02
2022-08-25T09:23:38.370Z,27.07
2022-08-25T09:24:38.407Z,27.02
2022-08-25T09:25:54.339Z,27.02
2022-08-25T09:26:38.369Z,27.12
2022-08-25T09:27:38.322Z,27.07
2022-08-25T09:28:38.319Z,27.02
2022-08-25T09:29:38.309Z,27.07
2022-08-25T09:30:38.303Z,27.07
2022-08-25T09:31:38.342Z,27.12
2022-08-25T09:32:38.260Z,27.12
2022-08-25T09:33:38.242Z,27.12
2022-08-25T09:34:38.255Z,27.07
2022-08-25T09:35:38.234Z,27.12
2022-08-25T09:36:38.226Z,27.07
2022-08-25T09:37:38.224Z,27.07
2022-08-25T09:38:38.410Z,27.12
2022-08-25T09:39:38.167Z,27.12
2022-08-25T09:40:38.160Z,27.12
2022-08-25T09:41:38.178Z,27.12
2022-08-25T09:42:38.153Z,27.18
2022-08-25T09:43:38.169Z,27.12
2022-08-25T09:44:38.133Z,27.18
2022-08-25T09:45:38.112Z,27.23
2022-08-25T09:46:38.129Z,27.12
2022-08-25T09:47:38.087Z,27.12
2022-08-25T09:48:40.700Z,27.12
2022-08-25T09:49:38.074Z,27.18
2022-08-25T09:50:38.068Z,27.18
2022-08-25T09:51:42.871Z,27.18
2022-08-25T09:52:38.023Z,27.23
2022-08-25T09:53:38.011Z,27.18
2022-08-25T09:54:44.035Z,27.18
2022-08-25T09:55:37.980Z,27.18
2022-08-25T09:56:37.989Z,27.23
2022-08-25T09:57:37.947Z,27.23
2022-08-25T09:58:37.976Z,27.23
2022-08-25T09:59:37.950Z,27.23
2022-08-25T10:00:37.932Z,27.18
2022-08-25T10:01:37.941Z,27.23
2022-08-25T10:02:37.898Z,27.18
2022-08-25T10:03:37.932Z,27.18
2022-08-25T10:04:37.898Z,27.23
2022-08-25T10:05:37.883Z,27.18
2022-08-25T10:06:37.852Z,27.18
2022-08-25T10:07:37.840Z,27.18
2022-08-25T10:08:37.821Z,27.18
2022-08-25T10:09:37.829Z,27.23
2022-08-25T10:10:37.826Z,27.23
2022-08-25T10:11:37.808Z,27.23
2022-08-25T10:12:37.773Z,27.23
2022-08-25T10:13:37.784Z,27.18
2022-08-25T10:14:37.776Z,27.18
2022-08-25T10:15:37.822Z,27.12
2022-08-25T10:16:37.837Z,27.18
2022-08-25T10:17:37.710Z,27.23
2022-08-25T10:18:37.729Z,27.23
2022-08-25T10:19:37.700Z,27.23
2022-08-25T10:20:37.717Z,27.18
2022-08-25T10:21:37.710Z,27.23
2022-08-25T10:22:37.716Z,27.18
2022-08-25T10:23:37.646Z,27.18
2022-08-25T10:24:37.635Z,27.18
2022-08-25T10:25:37.616Z,27.12
2022-08-25T10:26:37.670Z,27.12
2022-08-25T10:27:37.608Z,27.12
2022-08-25T10:28:37.600Z,27.18
2022-08-25T10:29:37.605Z,27.23
2022-08-25T10:30:37.596Z,27.18
2022-08-25T10:31:37.557Z,27.12
2022-08-25T10:32:37.557Z,27.29
2022-08-25T10:33:37.558Z,27.18
2022-08-25T10:34:37.539Z,27.12
2022-08-25T10:35:37.496Z,27.23
2022-08-25T10:36:37.503Z,27.18
2022-08-25T10:37:37.488Z,27.23
2022-08-25T10:38:37.479Z,27.18
2022-08-25T10:39:40.664Z,27.23
2022-08-25T10:40:37.503Z,27.18
2022-08-25T10:41:37.420Z,27.18
2022-08-25T10:42:37.431Z,27.23
2022-08-25T10:43:37.400Z,27.23
2022-08-25T10:44:37.408Z,27.23
2022-08-25T10:45:37.390Z,27.23
2022-08-25T10:46:37.412Z,27.23
2022-08-25T10:47:37.357Z,27.23
2022-08-25T10:48:37.343Z,27.23
2022-08-25T10:49:37.361Z,27.23
2022-08-25T10:50:37.345Z,27.29
2022-08-25T10:51:37.542Z,27.23
2022-08-25T10:52:37.336Z,27.23
2022-08-25T10:53:37.301Z,27.29
2022-08-25T10:54:37.314Z,27.23
2022-08-25T10:55:40.347Z,27.23
2022-08-25T10:56:40.269Z,27.23
2022-08-25T10:57:37.419Z,27.23
2022-08-25T10:58:37.251Z,27.23
2022-08-25T10:59:37.256Z,27.23
2022-08-25T11:00:37.226Z,27.18
2022-08-25T11:01:43.687Z,27.23
2022-08-25T11:02:37.192Z,27.23
2022-08-25T11:03:37.193Z,27.23
2022-08-25T11:04:37.211Z,27.23
2022-08-25T11:05:37.263Z,27.23
2022-08-25T11:06:37.185Z,27.23
2022-08-25T11:07:37.144Z,27.23
2022-08-25T11:08:37.148Z,27.23
2022-08-25T11:09:37.129Z,27.23
2022-08-25T11:10:37.142Z,27.23
2022-08-25T11:11:37.125Z,27.18
2022-08-25T11:12:37.113Z,27.23
2022-08-25T11:13:37.077Z,27.18
2022-08-25T11:14:37.067Z,27.12
2022-08-25T11:15:37.031Z,27.12
2022-08-25T11:16:37.249Z,27.18
2022-08-25T11:17:37.036Z,27.18
2022-08-25T11:18:37.006Z,27.23
2022-08-25T11:19:37.001Z,27.23
2022-08-25T11:20:36.993Z,27.23
2022-08-25T11:21:36.968Z,27.18
2022-08-25T11:22:36.990Z,27.12
2022-08-25T11:23:36.937Z,27.18
2022-08-25T11:24:37.570Z,27.18
2022-08-25T11:25:36.959Z,27.23
2022-08-25T11:26:37.450Z,27.18
2022-08-25T11:27:36.924Z,27.23
2022-08-25T11:28:36.904Z,27.23
2022-08-25T11:29:36.868Z,27.18
2022-08-25T11:30:36.925Z,27.23
2022-08-25T11:31:36.864Z,27.23
2022-08-25T11:32:36.840Z,27.18
2022-08-25T11:33:36.848Z,27.23
2022-08-25T11:34:36.831Z,27.18
2022-08-25T11:35:36.844Z,27.23
2022-08-25T11:36:36.914Z,27.18
2022-08-25T11:37:36.791Z,27.18
2022-08-25T11:38:36.764Z,27.18
2022-08-25T11:39:36.766Z,27.23
2022-08-25T11:40:36.767Z,27.18
2022-08-25T11:41:36.850Z,27.18
2022-08-25T11:42:36.719Z,27.07
2022-08-25T11:43:36.696Z,27.18
2022-08-25T11:44:36.706Z,27.23
2022-08-25T11:45:36.698Z,27.29
2022-08-25T11:46:36.695Z,27.29
2022-08-25T11:47:36.670Z,27.18
2022-08-25T11:48:36.657Z,27.23
2022-08-25T11:49:36.625Z,27.18
2022-08-25T11:50:36.636Z,27.23
2022-08-25T11:51:36.724Z,27.23
2022-08-25T11:52:36.617Z,27.29
2022-08-25T11:53:37.578Z,27.29
2022-08-25T11:54:36.630Z,27.23
2022-08-25T11:55:36.577Z,27.23
2022-08-25T11:56:36.575Z,27.23
2022-08-25T11:57:36.580Z,27.23
2022-08-25T11:58:36.544Z,27.23
2022-08-25T11:59:36.515Z,27.23
2022-08-25T12:00:36.527Z,27.29
2022-08-25T12:01:36.517Z,27.23
2022-08-25T12:02:36.510Z,27.29
2022-08-25T12:03:36.482Z,27.29
2022-08-25T12:04:44.048Z,27.29
2022-08-25T12:05:36.536Z,27.23
2022-08-25T12:06:36.471Z,27.29
2022-08-25T12:07:36.466Z,27.23
2022-08-25T12:08:36.445Z,27.29
2022-08-25T12:09:36.426Z,27.18
2022-08-25T12:10:36.417Z,27.12
2022-08-25T12:11:36.395Z,27.12
2022-08-25T12:12:36.403Z,27.07
2022-08-25T12:13:36.383Z,27.07
2022-08-25T12:14:36.354Z,27.18
2022-08-25T12:15:36.330Z,27.23
2022-08-25T12:16:36.413Z,27.18
2022-08-25T12:17:36.311Z,27.18
2022-08-25T12:18:36.305Z,27.23
2022-08-25T12:19:36.313Z,27.23
2022-08-25T12:20:36.317Z,27.23
2022-08-25T12:21:36.275Z,27.29
2022-08-25T12:22:36.248Z,27.23
2022-08-25T12:23:36.256Z,27.29
2022-08-25T12:24:36.266Z,27.29
2022-08-25T12:25:36.226Z,27.29
2022-08-25T12:26:36.218Z,27.23
2022-08-25T12:27:36.215Z,27.29
2022-08-25T12:28:36.200Z,27.23
2022-08-25T12:29:36.208Z,27.29
2022-08-25T12:30:36.709Z,27.23
2022-08-25T12:31:36.175Z,27.23
2022-08-25T12:32:36.183Z,27.29
2022-08-25T12:33:36.152Z,27.29
2022-08-25T12:34:36.117Z,27.23
2022-08-25T12:35:36.102Z,27.23
2022-08-25T12:36:36.093Z,27.23
2022-08-25T12:37:36.092Z,27.29
2022-08-25T12:38:39.840Z,27.23
2022-08-25T12:39:36.119Z,27.29
2022-08-25T12:40:36.150Z,27.23
2022-08-25T12:41:36.063Z,27.29
2022-08-25T12:42:36.083Z,27.29
2022-08-25T12:43:37.471Z,27.29
2022-08-25T12:44:36.035Z,27.23
2022-08-25T12:45:36.024Z,27.23
2022-08-25T12:46:35.988Z,27.23
2022-08-25T12:47:35.991Z,27.23
2022-08-25T12:48:35.975Z,27.23
2022-08-25T12:49:35.985Z,27.23
2022-08-25T12:50:35.962Z,27.23
2022-08-25T12:51:35.933Z,27.23
2022-08-25T12:52:35.952Z,27.23